Time;durP1;ratioP1;P1;durP2;ratioP2;P2;SDS_P1;SDS_P2;PMS_P1;PMS_P2;Temp;Humidity;BMP_temperature;BMP_pressure;BME280_temperature;BME280_humidity;BME280_pressure;Samples;Min_cycle;Max_cycle;Signal;HPM_P1;HPM_P2
2023/09/07 00:00:53;;;;;;;2.65;1.55;;;11.70;81.50;;;;;;5083863;28;20020;-81
2023/09/07 00:03:18;;;;;;;1.77;0.98;;;11.70;82.00;;;;;;5095311;28;20028;-81
2023/09/07 00:05:45;;;;;;;2.47;1.00;;;11.70;82.30;;;;;;5088596;28;20028;-80
2023/09/07 00:08:11;;;;;;;1.38;0.77;;;11.70;82.50;;;;;;5083549;28;20048;-82
2023/09/07 00:10:36;;;;;;;2.17;1.30;;;11.70;82.60;;;;;;5092863;28;20024;-80
2023/09/07 00:13:03;;;;;;;1.23;0.85;;;11.70;82.60;;;;;;5093003;28;20023;-81
2023/09/07 00:15:35;;;;;;;1.35;0.80;;;11.60;82.60;;;;;;5091797;28;20020;-80
2023/09/07 00:18:00;;;;;;;1.63;0.90;;;11.60;82.80;;;;;;5091651;28;20111;-81
2023/09/07 00:20:26;;;;;;;2.85;1.00;;;11.60;82.90;;;;;;5086498;28;20433;-81
2023/09/07 00:22:52;;;;;;;1.30;1.17;;;11.50;83.00;;;;;;5092831;28;20424;-80
2023/09/07 00:25:18;;;;;;;2.67;0.85;;;11.60;83.20;;;;;;5093270;28;20032;-81
2023/09/07 00:27:43;;;;;;;2.22;1.25;;;11.50;83.10;;;;;;5096106;28;20040;-82
2023/09/07 00:30:10;;;;;;;1.40;0.77;;;11.50;83.20;;;;;;5093611;28;20061;-81
2023/09/07 00:32:37;;;;;;;2.60;1.30;;;11.50;83.30;;;;;;5091514;28;20905;-81
2023/09/07 00:35:03;;;;;;;;;;;11.50;83.40;;;;;;5094040;28;20077;-79
2023/09/07 00:37:29;;;;;;;1.67;0.75;;;11.50;83.10;;;;;;5094066;28;19908;-81
2023/09/07 00:39:55;;;;;;;2.83;1.27;;;11.40;83.70;;;;;;5093140;28;20028;-83
2023/09/07 00:42:20;;;;;;;1.95;1.20;;;11.40;84.10;;;;;;5084342;28;20485;-82
2023/09/07 00:44:48;;;;;;;3.38;2.33;;;11.40;84.20;;;;;;5093081;28;20028;-81
2023/09/07 00:47:14;;;;;;;2.22;1.15;;;11.40;84.40;;;;;;5092634;28;20047;-81
2023/09/07 00:49:40;;;;;;;5.57;1.60;;;11.40;84.50;;;;;;5092624;28;20055;-81
2023/09/07 00:52:09;;;;;;;2.95;1.83;;;11.30;84.80;;;;;;5092474;28;20031;-82
2023/09/07 00:54:38;;;;;;;3.83;2.20;;;11.30;85.00;;;;;;5092581;28;20032;-82
2023/09/07 00:57:04;;;;;;;4.72;1.50;;;11.30;85.30;;;;;;5090939;28;20028;-83
2023/09/07 00:59:32;;;;;;;4.00;1.23;;;11.30;85.60;;;;;;5078726;28;20422;-82
2023/09/07 01:01:57;;;;;;;3.63;1.10;;;11.30;86.10;;;;;;5092265;28;20124;-82
2023/09/07 01:04:23;;;;;;;3.47;1.60;;;11.20;86.60;;;;;;5093102;28;20057;-81
2023/09/07 01:07:23;;;;;;;3.28;1.10;;;11.20;87.00;;;;;;5094071;28;20080;-82
2023/09/07 01:09:54;;;;;;;2.90;1.20;;;11.20;87.30;;;;;;5057823;28;20036;-81
2023/09/07 01:12:19;;;;;;;4.90;2.10;;;11.10;87.80;;;;;;5088217;28;20027;-82
2023/09/07 01:14:46;;;;;;;3.45;1.50;;;11.10;88.40;;;;;;5096541;28;20013;-82
2023/09/07 01:17:13;;;;;;;2.88;1.50;;;11.10;89.10;;;;;;5084700;28;20032;-81
2023/09/07 01:19:40;;;;;;;3.83;1.88;;;11.00;89.20;;;;;;5093645;28;20013;-81
2023/09/07 01:22:09;;;;;;;5.07;2.10;;;11.00;89.70;;;;;;5098111;28;20035;-81
2023/09/07 01:24:38;;;;;;;3.95;1.33;;;10.90;90.00;;;;;;5106407;28;20024;-80
2023/09/07 01:27:05;;;;;;;4.60;1.90;;;10.90;90.10;;;;;;5073592;28;20048;-81
2023/09/07 01:29:31;;;;;;;2.22;1.40;;;10.90;90.40;;;;;;5089007;28;20052;-80
2023/09/07 01:31:57;;;;;;;3.47;1.45;;;10.90;90.70;;;;;;5092838;28;20028;-79
2023/09/07 01:34:24;;;;;;;4.60;2.15;;;10.80;90.60;;;;;;5093741;28;20028;-80
2023/09/07 01:36:50;;;;;;;2.90;1.48;;;10.80;90.90;;;;;;5094050;28;20189;-81
2023/09/07 01:39:19;;;;;;;4.00;1.98;;;10.80;91.00;;;;;;5092872;28;20409;-80
2023/09/07 01:41:46;;;;;;;3.80;1.80;;;10.80;91.10;;;;;;5077751;28;20020;-80
2023/09/07 01:44:11;;;;;;;4.07;1.40;;;10.80;91.40;;;;;;5090798;28;20077;-79
2023/09/07 01:46:37;;;;;;;3.78;1.83;;;10.70;91.40;;;;;;5089348;28;20111;-81
2023/09/07 01:49:03;;;;;;;3.45;1.65;;;10.70;91.60;;;;;;5080494;28;20461;-80
2023/09/07 01:51:29;;;;;;;5.55;1.50;;;10.70;91.70;;;;;;5089795;28;20070;-81
2023/09/07 01:53:55;;;;;;;2.63;1.42;;;10.70;91.80;;;;;;5092191;28;20539;-83
2023/09/07 01:56:20;;;;;;;3.10;1.70;;;10.70;91.80;;;;;;5092117;28;20030;-81
2023/09/07 01:58:46;;;;;;;3.47;1.40;;;10.70;91.90;;;;;;5090610;28;20469;-82
2023/09/07 02:01:26;;;;;;;3.30;1.48;;;10.70;92.10;;;;;;5091835;28;20051;-81
2023/09/07 02:03:52;;;;;;;7.65;1.33;;;10.70;92.20;;;;;;5091767;28;20024;-81
2023/09/07 02:06:18;;;;;;;4.55;1.80;;;10.70;92.30;;;;;;5091976;28;20017;-80
2023/09/07 02:08:44;;;;;;;2.42;1.33;;;10.60;92.30;;;;;;5089564;28;20044;-81
2023/09/07 02:11:10;;;;;;;5.00;1.63;;;10.70;92.40;;;;;;5092166;28;20369;-80
2023/09/07 02:13:35;;;;;;;4.15;1.77;;;10.70;92.40;;;;;;5091876;28;20439;-82
2023/09/07 02:16:05;;;;;;;3.22;1.75;;;10.70;92.50;;;;;;5095168;28;20016;-82
2023/09/07 02:18:32;;;;;;;5.30;1.90;;;10.60;92.50;;;;;;5095771;28;20473;-82
2023/09/07 02:21:04;;;;;;;3.53;2.10;;;10.60;92.60;;;;;;5095341;28;20024;-82
2023/09/07 02:23:33;;;;;;;3.40;2.13;;;10.60;92.60;;;;;;5091174;28;20032;-83
2023/09/07 02:25:59;;;;;;;6.35;1.95;;;10.60;92.70;;;;;;5091824;28;20028;-82
2023/09/07 02:28:25;;;;;;;3.03;2.05;;;10.50;92.70;;;;;;5095097;28;20028;-82
2023/09/07 02:30:52;;;;;;;4.43;2.05;;;10.50;92.90;;;;;;5095236;28;20078;-82
2023/09/07 02:33:18;;;;;;;4.75;1.80;;;10.50;92.90;;;;;;5093763;28;20028;-81
2023/09/07 02:35:44;;;;;;;2.88;1.52;;;10.50;92.90;;;;;;5094907;28;20024;-82
2023/09/07 02:38:10;;;;;;;3.95;1.95;;;10.40;92.90;;;;;;5080888;28;20400;-81
2023/09/07 02:40:45;;;;;;;2.53;1.58;;;10.40;93.00;;;;;;5095096;28;20024;-82
2023/09/07 02:43:11;;;;;;;4.43;1.88;;;10.30;93.10;;;;;;5093687;28;20020;-82
2023/09/07 02:45:38;;;;;;;4.20;1.77;;;10.30;93.20;;;;;;5094856;28;20020;-80
2023/09/07 02:48:05;;;;;;;7.07;2.70;;;10.30;93.20;;;;;;5094225;28;20048;-82
2023/09/07 02:50:33;;;;;;;3.90;2.07;;;10.30;93.20;;;;;;5080985;28;20053;-81
2023/09/07 02:53:00;;;;;;;7.15;2.00;;;10.30;93.30;;;;;;5080542;28;20029;-81
2023/09/07 02:55:27;;;;;;;3.53;1.67;;;10.30;93.30;;;;;;5093654;28;20385;-82
2023/09/07 02:57:53;;;;;;;5.13;2.10;;;10.20;93.30;;;;;;5094728;28;20059;-80
2023/09/07 03:00:19;;;;;;;4.55;2.08;;;10.20;93.40;;;;;;5092422;28;20024;-82
2023/09/07 03:02:45;;;;;;;3.58;1.70;;;10.20;93.40;;;;;;5094387;28;20362;-83
2023/09/07 03:05:10;;;;;;;3.13;1.50;;;10.20;93.50;;;;;;5094755;28;20024;-83
2023/09/07 03:07:36;;;;;;;3.28;1.83;;;10.20;93.60;;;;;;5087952;28;20106;-81
2023/09/07 03:10:03;;;;;;;3.60;1.52;;;10.20;93.60;;;;;;5075086;28;20408;-80
2023/09/07 03:12:29;;;;;;;2.60;1.50;;;10.20;93.70;;;;;;5099724;28;20038;-81
2023/09/07 03:14:54;;;;;;;3.60;1.40;;;10.20;93.70;;;;;;5105352;28;20020;-81
2023/09/07 03:17:20;;;;;;;4.07;1.60;;;10.20;93.70;;;;;;5093593;28;20077;-80
2023/09/07 03:19:49;;;;;;;3.88;1.52;;;10.20;93.80;;;;;;5093593;28;20024;-81
2023/09/07 03:22:15;;;;;;;4.50;1.52;;;10.20;93.80;;;;;;5094862;28;20056;-82
2023/09/07 03:24:42;;;;;;;2.53;1.65;;;10.30;93.80;;;;;;5094062;28;20036;-81
2023/09/07 03:27:10;;;;;;;2.43;1.30;;;10.30;93.70;;;;;;5094706;28;20044;-81
2023/09/07 03:29:36;;;;;;;3.95;1.60;;;10.30;93.70;;;;;;5093982;28;20260;-82
2023/09/07 03:32:03;;;;;;;6.82;1.52;;;10.30;93.70;;;;;;5094288;28;20032;-83
2023/09/07 03:34:28;;;;;;;5.93;1.70;;;10.30;93.60;;;;;;5093982;28;20024;-82
2023/09/07 03:36:54;;;;;;;9.27;2.08;;;10.40;93.60;;;;;;5091818;28;20103;-83
2023/09/07 03:39:22;;;;;;;3.58;1.50;;;10.40;93.50;;;;;;5093556;28;20085;-82
2023/09/07 03:41:48;;;;;;;6.85;2.22;;;10.40;93.40;;;;;;5089430;28;20127;-82
2023/09/07 03:44:14;;;;;;;6.07;1.67;;;10.50;93.40;;;;;;5085704;28;20035;-82
2023/09/07 03:46:39;;;;;;;2.33;1.17;;;10.50;93.40;;;;;;5083815;28;20035;-83
2023/09/07 03:49:05;;;;;;;4.45;1.50;;;10.60;93.20;;;;;;5093820;28;20035;-82
2023/09/07 03:51:31;;;;;;;3.28;1.17;;;10.60;93.10;;;;;;5093247;28;20504;-82
2023/09/07 03:53:57;;;;;;;2.97;1.70;;;10.70;93.00;;;;;;5087142;28;20020;-80
2023/09/07 03:56:23;;;;;;;3.75;1.42;;;10.80;92.90;;;;;;5086720;28;20081;-81
2023/09/07 03:58:49;;;;;;;3.38;1.40;;;10.80;92.80;;;;;;5089037;28;20024;-82
2023/09/07 04:01:15;;;;;;;1.95;1.05;;;10.90;92.60;;;;;;5089868;28;20031;-81
2023/09/07 04:03:41;;;;;;;2.10;1.33;;;10.90;92.40;;;;;;5092630;28;20026;-82
2023/09/07 04:06:07;;;;;;;3.00;2.60;;;10.90;92.20;;;;;;5093547;28;20020;-83
2023/09/07 04:08:33;;;;;;;2.90;1.25;;;11.00;92.20;;;;;;5093528;28;20097;-81
2023/09/07 04:11:06;;;;;;;4.57;1.80;;;11.00;92.10;;;;;;5093291;28;20062;-82
2023/09/07 04:13:32;;;;;;;3.00;1.38;;;11.00;92.10;;;;;;5093588;28;20481;-83
2023/09/07 04:15:58;;;;;;;2.92;1.67;;;11.10;92.30;;;;;;5088397;28;20044;-82
2023/09/07 04:18:24;;;;;;;3.13;1.00;;;11.20;92.20;;;;;;5087166;28;20481;-81
2023/09/07 04:20:50;;;;;;;7.13;2.00;;;11.30;91.90;;;;;;5090795;28;20023;-83
2023/09/07 04:23:16;;;;;;;2.80;1.13;;;11.70;91.50;;;;;;5087178;28;20028;-79
2023/09/07 04:25:41;;;;;;;3.63;1.38;;;12.10;90.60;;;;;;5103224;28;20389;-80
2023/09/07 04:28:08;;;;;;;4.63;1.33;;;12.50;90.00;;;;;;5101534;28;20833;-81
2023/09/07 04:30:38;;;;;;;6.20;1.60;;;13.00;88.10;;;;;;5098750;28;20082;-82
2023/09/07 04:33:04;;;;;;;5.00;1.60;;;13.50;85.20;;;;;;5092978;28;20093;-81
2023/09/07 04:35:30;;;;;;;4.40;1.42;;;13.90;82.90;;;;;;5093149;28;20024;-81
2023/09/07 04:37:56;;;;;;;5.78;1.50;;;14.10;81.90;;;;;;5091547;28;20028;-81
2023/09/07 04:40:23;;;;;;;7.72;1.40;;;14.30;81.00;;;;;;5079661;28;20086;-82
2023/09/07 04:42:49;;;;;;;6.63;1.40;;;14.50;80.00;;;;;;5093149;28;20059;-80
2023/09/07 04:45:15;;;;;;;2.25;1.10;;;14.70;79.00;;;;;;5088367;28;20052;-81
2023/09/07 04:47:41;;;;;;;2.15;1.35;;;15.00;78.80;;;;;;5077050;28;20123;-81
2023/09/07 04:50:07;;;;;;;3.85;1.35;;;15.30;77.00;;;;;;5095274;28;20020;-83
2023/09/07 04:52:34;;;;;;;3.03;1.40;;;14.90;76.50;;;;;;5092908;28;20088;-82
2023/09/07 04:55:00;;;;;;;4.45;1.35;;;14.20;78.40;;;;;;5091458;28;20043;-84
2023/09/07 04:57:30;;;;;;;2.97;1.38;;;13.60;80.60;;;;;;5093530;28;20121;-84
2023/09/07 04:59:56;;;;;;;2.35;1.27;;;13.20;82.30;;;;;;5093422;28;20032;-84
2023/09/07 05:02:22;;;;;;;3.05;1.40;;;13.00;83.40;;;;;;5091401;28;20056;-82
2023/09/07 05:04:48;;;;;;;3.72;1.80;;;12.80;84.50;;;;;;5098602;28;20028;-82
2023/09/07 05:07:14;;;;;;;7.43;1.67;;;12.60;85.10;;;;;;5093034;28;20048;-81
2023/09/07 05:09:39;;;;;;;10.20;1.67;;;12.50;85.60;;;;;;5092908;28;20377;-82
2023/09/07 05:12:05;;;;;;;4.90;1.38;;;12.40;85.70;;;;;;5092148;28;20530;-84
2023/09/07 05:14:31;;;;;;;3.85;1.30;;;12.30;86.10;;;;;;5083408;28;20374;-82
2023/09/07 05:16:58;;;;;;;5.20;1.30;;;12.20;86.80;;;;;;5087401;28;20111;-82
2023/09/07 05:19:24;;;;;;;3.78;1.30;;;12.10;87.20;;;;;;5092170;28;20089;-83
2023/09/07 05:21:50;;;;;;;9.90;2.03;;;12.10;87.40;;;;;;5092489;28;20024;-83
2023/09/07 05:24:15;;;;;;;5.40;1.00;;;12.00;87.60;;;;;;5092327;28;20047;-81
2023/09/07 05:26:44;;;;;;;2.03;1.17;;;12.00;88.10;;;;;;5090125;28;20079;-85
2023/09/07 05:29:11;;;;;;;4.10;1.50;;;11.90;88.10;;;;;;5092516;28;20046;-84
2023/09/07 05:31:40;;;;;;;5.47;1.48;;;11.90;88.50;;;;;;5073178;28;20070;-86
2023/09/07 05:34:06;;;;;;;2.97;1.23;;;11.90;88.70;;;;;;5090920;28;20118;-83
2023/09/07 05:36:32;;;;;;;5.53;1.27;;;11.90;88.80;;;;;;5092233;28;20089;-86
2023/09/07 05:38:59;;;;;;;3.53;1.23;;;12.00;88.80;;;;;;5083000;28;20021;-82
2023/09/07 05:41:24;;;;;;;4.03;1.63;;;12.00;88.60;;;;;;5088660;28;20389;-83
2023/09/07 05:43:52;;;;;;;10.32;2.60;;;12.00;88.50;;;;;;5093445;28;20028;-83
2023/09/07 05:46:17;;;;;;;8.30;2.50;;;12.10;88.60;;;;;;5098608;28;20021;-84
2023/09/07 05:48:43;;;;;;;2.78;1.30;;;12.30;88.60;;;;;;5082840;28;20072;-84
2023/09/07 05:51:12;;;;;;;3.60;1.17;;;12.40;88.30;;;;;;5097771;28;20020;-84
2023/09/07 05:53:39;;;;;;;5.72;1.38;;;12.40;87.50;;;;;;5095290;28;20450;-84
2023/09/07 05:56:05;;;;;;;9.10;1.65;;;12.40;87.20;;;;;;5096018;28;20076;-89
2023/09/07 05:58:31;;;;;;;6.88;1.20;;;12.50;87.00;;;;;;5088664;28;20056;-83
2023/09/07 06:00:57;;;;;;;9.68;1.48;;;12.50;86.90;;;;;;5085957;28;20099;-85
2023/09/07 06:03:23;;;;;;;7.13;1.40;;;13.20;87.60;;;;;;5083301;28;20024;-86
2023/09/07 06:05:48;;;;;;;5.50;1.35;;;14.90;85.50;;;;;;5089552;28;20058;-85
2023/09/07 06:08:14;;;;;;;3.53;1.40;;;17.10;77.20;;;;;;5080583;28;20048;-84
2023/09/07 06:10:42;;;;;;;4.50;0.95;;;18.60;69.70;;;;;;5095609;28;20012;-85
2023/09/07 06:13:07;;;;;;;5.10;1.30;;;18.90;65.50;;;;;;5102147;28;20042;-84
2023/09/07 06:15:33;;;;;;;4.25;1.63;;;18.80;65.80;;;;;;5082959;28;20035;-87
2023/09/07 06:17:59;;;;;;;7.43;1.77;;;18.60;65.20;;;;;;5090899;28;20131;-86
2023/09/07 06:20:25;;;;;;;7.47;1.40;;;19.10;66.00;;;;;;5084305;28;20021;-85
2023/09/07 06:22:51;;;;;;;7.03;2.28;;;19.30;63.40;;;;;;5092799;28;20069;-86
2023/09/07 06:25:17;;;;;;;3.30;1.75;;;19.20;63.80;;;;;;5115179;28;20409;-86
2023/09/07 06:27:43;;;;;;;4.97;1.27;;;18.50;64.50;;;;;;5106643;28;20103;-87
2023/09/07 06:30:09;;;;;;;5.18;1.50;;;18.40;65.50;;;;;;5103201;28;20016;-85
2023/09/07 06:32:35;;;;;;;3.42;1.15;;;19.00;65.10;;;;;;5100027;28;20078;-84
2023/09/07 06:35:01;;;;;;;8.07;1.27;;;19.60;61.90;;;;;;5099601;28;20016;-85
2023/09/07 06:37:27;;;;;;;6.47;1.80;;;20.10;60.90;;;;;;5101248;28;20509;-84
2023/09/07 06:39:52;;;;;;;6.00;2.40;;;20.70;59.70;;;;;;5113979;28;20058;-84
2023/09/07 06:42:18;;;;;;;14.25;2.63;;;21.00;58.70;;;;;;5105523;28;20044;-84
2023/09/07 06:44:45;;;;;;;6.72;3.35;;;21.30;57.90;;;;;;5106196;28;20484;-86
2023/09/07 06:47:11;;;;;;;6.40;2.10;;;21.70;57.50;;;;;;5085773;28;20155;-86
2023/09/07 06:49:38;;;;;;;3.58;1.65;;;22.40;56.60;;;;;;5092640;28;20388;-86
2023/09/07 06:52:04;;;;;;;9.75;2.47;;;22.80;53.90;;;;;;5105789;28;20020;-86
2023/09/07 06:54:30;;;;;;;5.07;1.50;;;22.60;54.30;;;;;;5089540;28;20035;-85
2023/09/07 06:56:56;;;;;;;6.57;2.22;;;22.70;54.10;;;;;;5095408;28;20051;-86
2023/09/07 06:59:21;;;;;;;6.53;2.35;;;23.00;52.70;;;;;;5100426;28;20437;-86
2023/09/07 07:01:47;;;;;;;7.40;1.58;;;23.50;52.60;;;;;;5097008;28;20031;-87
2023/09/07 07:04:13;;;;;;;2.70;1.35;;;24.10;50.80;;;;;;5097753;28;20040;-87
2023/09/07 07:06:39;;;;;;;6.93;1.63;;;24.40;49.10;;;;;;5097459;28;20016;-87
2023/09/07 07:09:06;;;;;;;3.90;2.00;;;24.20;48.80;;;;;;5082214;28;20064;-86
2023/09/07 07:11:32;;;;;;;;;;;24.30;48.80;;;;;;5099032;28;20530;-87
2023/09/07 07:13:57;;;;;;;5.40;2.03;;;25.00;49.90;;;;;;5098834;28;19911;-86
2023/09/07 07:16:23;;;;;;;9.05;2.53;;;25.80;47.50;;;;;;5098092;28;20032;-84
2023/09/07 07:18:49;;;;;;;5.20;1.65;;;26.80;45.90;;;;;;5095163;28;20099;-88
2023/09/07 07:21:15;;;;;;;4.20;1.50;;;27.10;44.20;;;;;;5098717;28;20055;-88
2023/09/07 07:23:41;;;;;;;3.75;0.98;;;26.70;44.10;;;;;;5085818;28;20384;-88
2023/09/07 07:26:08;;;;;;;4.60;1.77;;;26.40;44.90;;;;;;5076300;28;20488;-87
2023/09/07 07:28:34;;;;;;;3.30;1.17;;;26.00;44.50;;;;;;5095012;28;20032;-85
2023/09/07 07:31:08;;;;;;;4.40;1.40;;;25.80;44.40;;;;;;5095007;28;20020;-86
2023/09/07 07:33:34;;;;;;;1.55;0.77;;;25.90;44.40;;;;;;5080011;28;20031;-86
2023/09/07 07:36:00;;;;;;;3.92;1.10;;;25.90;43.60;;;;;;5095836;28;20099;-86
2023/09/07 07:38:25;;;;;;;5.03;1.52;;;25.90;43.60;;;;;;5094221;28;20023;-84
2023/09/07 07:40:53;;;;;;;4.68;1.42;;;25.90;43.90;;;;;;5097600;28;20024;-87
2023/09/07 07:43:18;;;;;;;1.92;1.05;;;26.50;43.20;;;;;;5095389;28;20023;-86
2023/09/07 07:45:44;;;;;;;5.78;1.77;;;26.40;42.70;;;;;;5094913;28;20024;-89
2023/09/07 07:48:10;;;;;;;5.13;1.58;;;26.40;43.00;;;;;;5096296;28;20043;-86
2023/09/07 07:50:39;;;;;;;6.03;1.70;;;27.00;42.60;;;;;;5095054;28;20603;-87
2023/09/07 07:53:06;;;;;;;28.85;3.85;;;27.20;42.50;;;;;;5094509;28;20024;-87
2023/09/07 07:55:38;;;;;;;5.20;1.40;;;27.40;42.30;;;;;;5078044;28;20021;-87
2023/09/07 07:58:07;;;;;;;4.80;1.17;;;27.70;41.50;;;;;;5101145;28;20032;-88
2023/09/07 08:00:34;;;;;;;2.90;1.30;;;27.20;41.00;;;;;;5100974;28;20746;-88
2023/09/07 08:03:02;;;;;;;5.85;1.83;;;25.80;42.60;;;;;;5093354;28;20039;-87
2023/09/07 08:05:29;;;;;;;9.60;1.70;;;24.80;44.60;;;;;;5095193;28;20518;-88
2023/09/07 08:07:56;;;;;;;3.53;1.25;;;25.40;44.70;;;;;;5096465;28;20079;-86
2023/09/07 08:10:22;;;;;;;4.03;1.50;;;26.20;42.80;;;;;;5095165;28;20473;-88
2023/09/07 08:12:48;;;;;;;5.70;1.42;;;25.10;43.00;;;;;;5094511;28;20081;-87
2023/09/07 08:15:14;;;;;;;2.28;1.30;;;24.40;45.00;;;;;;5082951;28;20032;-87
2023/09/07 08:17:40;;;;;;;3.53;1.17;;;25.20;44.30;;;;;;5074534;28;20035;-86
2023/09/07 08:20:08;;;;;;;5.32;1.50;;;25.20;43.90;;;;;;5085577;28;20024;-85
2023/09/07 08:22:36;;;;;;;5.18;0.90;;;25.50;43.80;;;;;;5080006;28;20024;-86
2023/09/07 08:25:04;;;;;;;3.72;1.67;;;25.70;43.20;;;;;;5088470;28;20023;-87
2023/09/07 08:27:30;;;;;;;6.40;2.33;;;25.80;43.50;;;;;;5088269;28;20066;-88
2023/09/07 08:29:56;;;;;;;2.40;1.17;;;25.80;43.20;;;;;;5090677;28;20016;-86
2023/09/07 08:32:22;;;;;;;2.58;1.30;;;26.00;43.40;;;;;;5088423;28;20031;-86
2023/09/07 08:34:48;;;;;;;7.57;1.40;;;26.20;42.10;;;;;;5109803;28;20021;-85
2023/09/07 08:37:14;;;;;;;4.28;1.63;;;25.80;42.60;;;;;;5078586;28;20032;-85
2023/09/07 08:39:40;;;;;;;5.57;1.67;;;25.20;43.20;;;;;;5094600;28;20023;-86
2023/09/07 08:42:05;;;;;;;5.65;1.23;;;24.70;44.00;;;;;;5110456;28;20024;-86
2023/09/07 08:44:33;;;;;;;3.13;1.52;;;24.30;44.60;;;;;;5087931;28;20042;-85
2023/09/07 08:47:03;;;;;;;3.58;1.73;;;23.80;45.00;;;;;;5095715;28;20031;-86
2023/09/07 08:49:29;;;;;;;8.57;1.58;;;23.80;45.30;;;;;;5083432;28;20021;-87
2023/09/07 08:51:59;;;;;;;5.27;2.33;;;23.60;45.60;;;;;;5079204;28;20023;-86
2023/09/07 08:54:25;;;;;;;4.43;1.50;;;23.40;45.30;;;;;;5096493;28;20027;-86
2023/09/07 08:56:51;;;;;;;2.80;0.60;;;24.10;44.50;;;;;;5099300;28;20074;-87
2023/09/07 08:59:16;;;;;;;5.82;0.98;;;25.40;41.80;;;;;;5108015;28;20028;-87
2023/09/07 09:01:42;;;;;;;7.45;0.82;;;26.30;39.60;;;;;;5113275;28;20028;-84
2023/09/07 09:04:08;;;;;;;4.95;1.00;;;25.80;39.50;;;;;;5107673;28;20489;-86
2023/09/07 09:06:34;;;;;;;2.85;1.17;;;25.40;39.80;;;;;;5096064;28;20032;-85
2023/09/07 09:09:00;;;;;;;4.45;1.20;;;24.40;39.90;;;;;;5082406;28;20147;-85
2023/09/07 09:11:27;;;;;;;3.50;1.23;;;24.10;41.60;;;;;;5094954;28;20016;-87
2023/09/07 09:13:54;;;;;;;3.53;1.10;;;24.30;41.00;;;;;;5074741;28;20060;-85
2023/09/07 09:16:20;;;;;;;5.63;2.00;;;23.50;41.30;;;;;;5081307;28;20016;-89
2023/09/07 09:18:52;;;;;;;8.98;1.40;;;23.80;42.60;;;;;;5095495;28;20103;-86
2023/09/07 09:21:22;;;;;;;5.00;1.73;;;24.60;41.10;;;;;;5094892;28;20024;-87
2023/09/07 09:23:50;;;;;;;9.65;1.70;;;24.00;40.70;;;;;;5092743;28;20020;-86
2023/09/07 09:26:16;;;;;;;4.95;1.15;;;23.00;41.70;;;;;;5082897;28;20020;-85
2023/09/07 09:28:46;;;;;;;3.90;0.97;;;22.30;42.60;;;;;;5077581;28;20036;-88
2023/09/07 09:31:12;;;;;;;5.85;1.80;;;22.90;42.70;;;;;;5092464;28;20376;-86
2023/09/07 09:33:39;;;;;;;3.38;1.10;;;24.50;41.00;;;;;;5110528;28;20107;-86
2023/09/07 09:36:05;;;;;;;;;;;25.60;39.60;;;;;;5108661;28;20507;-86
2023/09/07 09:38:32;;;;;;;7.93;1.08;;;25.80;38.50;;;;;;5097044;28;19908;-85
2023/09/07 09:40:58;;;;;;;4.45;1.73;;;24.30;40.00;;;;;;5085392;28;20036;-86
2023/09/07 09:43:25;;;;;;;6.55;2.67;;;22.70;42.40;;;;;;5076498;28;20107;-86
2023/09/07 09:45:52;;;;;;;4.20;1.27;;;21.70;44.50;;;;;;5097156;28;20016;-86
2023/09/07 09:48:22;;;;;;;2.65;2.03;;;21.60;45.30;;;;;;5094918;28;20040;-86
2023/09/07 09:50:49;;;;;;;3.10;1.20;;;22.80;44.20;;;;;;5084507;28;20020;-86
2023/09/07 09:53:18;;;;;;;7.35;1.30;;;24.50;41.90;;;;;;5096873;28;20093;-86
2023/09/07 09:55:50;;;;;;;1.27;0.70;;;24.60;40.40;;;;;;5098258;28;20066;-88
2023/09/07 09:58:17;;;;;;;1.88;0.50;;;23.30;40.70;;;;;;5093245;28;20050;-89
2023/09/07 10:00:44;;;;;;;3.92;1.00;;;22.50;42.30;;;;;;5097297;28;20535;-87
2023/09/07 10:03:26;;;;;;;3.08;0.93;;;21.60;44.00;;;;;;5096882;28;20032;-88
2023/09/07 10:05:53;;;;;;;2.75;1.35;;;22.00;44.60;;;;;;5091343;28;20363;-85
2023/09/07 10:08:24;;;;;;;3.47;1.40;;;22.70;43.60;;;;;;5078441;28;20048;-85
2023/09/07 10:10:54;;;;;;;3.58;1.20;;;22.40;43.00;;;;;;5090521;28;20355;-87
2023/09/07 10:13:40;;;;;;;1.85;1.05;;;21.70;44.40;;;;;;5090042;28;20385;-85
2023/09/07 10:16:09;;;;;;;2.00;1.00;;;21.90;45.00;;;;;;5088070;28;20024;-85
2023/09/07 10:18:39;;;;;;;2.88;0.85;;;23.30;43.00;;;;;;5096724;28;20020;-86
2023/09/07 10:21:06;;;;;;;6.03;1.10;;;23.20;42.60;;;;;;5090997;28;20036;-86
2023/09/07 10:23:37;;;;;;;2.80;0.90;;;22.40;43.60;;;;;;5083606;28;20388;-84
2023/09/07 10:26:05;;;;;;;3.25;1.10;;;21.40;43.90;;;;;;5077414;28;20032;-87
2023/09/07 10:28:32;;;;;;;4.85;1.42;;;20.50;45.10;;;;;;5091114;28;20037;-88
2023/09/07 10:30:59;;;;;;;3.27;1.03;;;19.90;46.60;;;;;;5095905;28;20384;-85
2023/09/07 10:33:25;;;;;;;2.92;1.35;;;19.70;47.30;;;;;;5115154;28;20265;-85
2023/09/07 10:35:51;;;;;;;4.25;1.95;;;19.50;47.80;;;;;;5089500;28;20063;-85
2023/09/07 10:38:17;;;;;;;4.07;1.60;;;19.10;48.30;;;;;;5094457;28;20096;-84
2023/09/07 10:40:47;;;;;;;5.38;1.27;;;18.70;49.70;;;;;;5089462;28;20078;-85
2023/09/07 10:43:13;;;;;;;7.68;1.80;;;18.40;50.70;;;;;;5084093;28;20021;-86
2023/09/07 10:45:39;;;;;;;4.18;1.02;;;18.30;50.90;;;;;;5098284;28;20385;-86
2023/09/07 10:48:05;;;;;;;9.65;1.42;;;18.20;50.90;;;;;;5095166;28;20075;-86
2023/09/07 10:50:41;;;;;;;3.42;1.23;;;17.90;51.60;;;;;;5097459;28;20027;-87
2023/09/07 10:53:07;;;;;;;5.93;1.60;;;17.70;51.30;;;;;;5095763;28;20028;-86
2023/09/07 10:55:38;;;;;;;9.68;4.38;;;17.60;51.50;;;;;;5097113;28;20489;-86
2023/09/07 10:58:04;;;;;;;8.52;1.70;;;17.50;51.20;;;;;;5083780;28;20024;-86
2023/09/07 11:00:30;;;;;;;5.80;2.78;;;17.50;51.00;;;;;;5094230;28;20379;-85
2023/09/07 11:02:56;;;;;;;2.85;0.93;;;17.40;51.90;;;;;;5097042;28;20059;-86
2023/09/07 11:05:22;;;;;;;25.00;3.17;;;17.50;51.90;;;;;;5093185;28;20438;-86
2023/09/07 11:07:48;;;;;;;6.13;1.23;;;17.60;52.00;;;;;;5078544;28;20049;-88
2023/09/07 11:10:13;;;;;;;3.58;1.20;;;17.70;52.40;;;;;;5109392;28;20020;-85
2023/09/07 11:12:42;;;;;;;3.22;1.20;;;17.80;52.10;;;;;;5097778;28;20079;-86
2023/09/07 11:15:09;;;;;;;5.90;1.75;;;17.90;52.90;;;;;;5090519;28;20031;-85
2023/09/07 11:17:42;;;;;;;3.70;1.98;;;17.90;52.30;;;;;;5095848;28;20044;-87
2023/09/07 11:20:10;;;;;;;3.03;1.55;;;17.80;52.30;;;;;;5089433;28;20767;-87
2023/09/07 11:22:38;;;;;;;3.75;1.17;;;17.60;52.70;;;;;;5096058;28;20385;-85
2023/09/07 11:25:05;;;;;;;2.38;1.35;;;17.50;52.50;;;;;;5095648;28;20020;-86
2023/09/07 11:27:32;;;;;;;3.67;1.13;;;17.30;52.10;;;;;;5081874;28;20024;-88
2023/09/07 11:30:00;;;;;;;3.28;0.90;;;17.20;52.70;;;;;;5111998;28;20032;-85
2023/09/07 11:32:34;;;;;;;3.25;1.63;;;17.00;53.40;;;;;;5084132;28;20055;-85
2023/09/07 11:35:00;;;;;;;3.67;1.55;;;16.90;54.00;;;;;;5075443;28;20382;-87
2023/09/07 11:37:26;;;;;;;7.15;2.00;;;16.80;54.50;;;;;;5086369;28;20028;-87
2023/09/07 11:39:52;;;;;;;4.47;2.00;;;16.70;54.90;;;;;;5080179;28;20020;-87
2023/09/07 11:42:18;;;;;;;4.28;1.63;;;16.70;55.50;;;;;;5077670;28;20114;-87
2023/09/07 11:44:44;;;;;;;3.65;1.73;;;16.70;55.50;;;;;;5088084;28;20024;-87
2023/09/07 11:47:10;;;;;;;5.18;1.30;;;16.70;55.80;;;;;;5087048;28;20032;-88
2023/09/07 11:49:35;;;;;;;2.58;1.50;;;16.60;55.40;;;;;;5074690;28;20025;-89
2023/09/07 11:52:01;;;;;;;3.20;1.38;;;16.60;55.10;;;;;;5108955;28;20093;-86
2023/09/07 11:54:27;;;;;;;3.45;1.10;;;16.70;55.50;;;;;;5082904;28;20016;-85
2023/09/07 11:56:53;;;;;;;2.45;1.35;;;16.80;54.10;;;;;;5090032;28;20039;-85
2023/09/07 11:59:19;;;;;;;3.45;1.20;;;16.70;54.10;;;;;;5094703;28;20036;-86
2023/09/07 12:01:45;;;;;;;5.60;1.90;;;16.80;53.60;;;;;;5080012;28;20506;-86
2023/09/07 12:04:11;;;;;;;3.15;1.50;;;16.90;53.80;;;;;;5101928;28;20020;-86
2023/09/07 12:06:38;;;;;;;2.53;1.30;;;17.00;53.50;;;;;;5094086;28;20091;-87
2023/09/07 12:09:06;;;;;;;;;;;17.20;53.50;;;;;;5095788;28;20040;-88
2023/09/07 12:11:33;;;;;;;3.15;0.98;;;17.30;53.50;;;;;;5092263;28;19904;-87
2023/09/07 12:13:59;;;;;;;7.30;1.73;;;17.60;52.80;;;;;;5083611;28;20030;-87
2023/09/07 12:16:26;;;;;;;4.13;1.40;;;17.90;52.50;;;;;;5088943;28;20036;-85
2023/09/07 12:18:52;;;;;;;3.67;1.20;;;18.00;51.90;;;;;;5079753;28;20020;-85
2023/09/07 12:21:17;;;;;;;2.15;1.23;;;17.80;52.10;;;;;;5097155;28;20024;-85
2023/09/07 12:23:43;;;;;;;3.90;1.35;;;17.90;52.30;;;;;;5114645;28;20113;-86
2023/09/07 12:26:09;;;;;;;3.45;1.00;;;18.00;50.20;;;;;;5091990;28;20028;-85
2023/09/07 12:28:36;;;;;;;5.20;1.55;;;18.00;49.40;;;;;;5091140;28;20032;-86
2023/09/07 12:31:02;;;;;;;4.23;1.63;;;17.80;49.60;;;;;;5098151;28;20078;-85
2023/09/07 12:33:30;;;;;;;3.75;1.45;;;17.80;49.60;;;;;;5090990;28;20070;-86
2023/09/07 12:35:56;;;;;;;2.78;1.25;;;18.10;49.50;;;;;;5086156;28;20016;-86
2023/09/07 12:38:27;;;;;;;2.20;1.20;;;18.40;49.10;;;;;;5090412;28;20046;-88
2023/09/07 12:40:53;;;;;;;1.95;1.13;;;18.70;48.90;;;;;;5073938;28;20017;-87
2023/09/07 12:43:19;;;;;;;9.85;1.48;;;19.00;48.50;;;;;;5095678;28;20396;-88
2023/09/07 12:45:46;;;;;;;4.88;1.50;;;19.10;48.50;;;;;;5116734;28;20084;-87